Alexander, Maine
Current Conditions -  °F | °C
As of 2:35 AM on Wednesday 22 Oct 2014 (Local Time) from KBHB Reporting Station
Overcast Overcast  
Wind Chill: 43°   Ceiling: 1100
Heat Index: 48°   Visibility: 10mi
Dew Point: 48°   Wind: 13mph
Humidity: 100%   Direction: 40°NE
Pressure: 30.14"   Gusts: 17mph
Location:  45.0659°N, 67.4987°W
Report Text: KBHB 220635Z AUTO 04011G15KT 10SM BKN011 BKN031 OVC050 09/09 A3014 RMK AO1 P0001
Loading
Personal Weather Stations






























Interactive Weather Map New forecast layout! Learn more

10-Day Weather Forecast

Advertisements
Track Severe Weather on mobile